createdAt,value
2023-01-23T00:02:37.474Z,1.13
2023-01-23T00:05:40.398Z,0.83
2023-01-23T00:08:44.687Z,1.63
2023-01-23T00:11:47.615Z,1.40
2023-01-23T00:14:51.887Z,1.77
2023-01-23T00:17:54.819Z,3.03
2023-01-23T00:20:58.436Z,1.30
2023-01-23T00:24:02.535Z,1.93
2023-01-23T00:27:05.472Z,0.80
2023-01-23T00:30:11.184Z,0.90
2023-01-23T00:33:14.144Z,1.57
2023-01-23T00:36:17.051Z,1.27
2023-01-23T00:39:22.728Z,1.47
2023-01-23T00:42:25.722Z,0.77
2023-01-23T00:45:30.045Z,4.87
2023-01-23T00:48:33.025Z,1.73
2023-01-23T00:51:36.311Z,1.60
2023-01-23T00:54:39.381Z,1.17
2023-01-23T00:57:42.319Z,1.20
2023-01-23T01:00:46.629Z,1.47
2023-01-23T01:03:50.484Z,2.50
2023-01-23T01:06:53.631Z,1.93
2023-01-23T01:09:56.684Z,4.53
2023-01-23T01:13:01.404Z,1.97
2023-01-23T01:16:07.085Z,1.10
2023-01-23T01:19:10.215Z,2.07
2023-01-23T01:22:13.127Z,1.30
2023-01-23T01:25:16.176Z,1.27
2023-01-23T01:28:19.291Z,4.47
2023-01-23T01:31:23.743Z,1.50
2023-01-23T01:34:26.898Z,2.60
2023-01-23T01:37:29.859Z,1.17
2023-01-23T01:40:35.638Z,2.90
2023-01-23T01:43:38.737Z,2.10
2023-01-23T01:46:43.028Z,1.57
2023-01-23T01:49:46.354Z,1.30
2023-01-23T01:52:49.454Z,2.27
2023-01-23T01:55:52.458Z,3.07
2023-01-23T01:58:56.167Z,0.80
2023-01-23T02:02:08.335Z,2.40
2023-01-23T02:05:14.065Z,2.17
2023-01-23T02:08:22.822Z,1.10
2023-01-23T02:11:26.008Z,3.63
2023-01-23T02:14:29.211Z,1.60
2023-01-23T02:17:35.500Z,3.37
2023-01-23T02:20:39.673Z,3.20
2023-01-23T02:23:55.336Z,2.57
2023-01-23T02:26:59.611Z,1.50
2023-01-23T02:30:03.244Z,3.60
2023-01-23T02:33:10.614Z,4.93
2023-01-23T02:36:13.829Z,1.80
2023-01-23T02:39:18.335Z,3.17
2023-01-23T02:42:24.674Z,2.33
2023-01-23T02:45:28.408Z,1.97
2023-01-23T02:48:31.565Z,3.30
2023-01-23T02:51:34.525Z,2.77
2023-01-23T02:54:37.589Z,2.10
2023-01-23T02:57:41.906Z,2.10
2023-01-23T03:00:43.995Z,3.30
2023-01-23T03:03:46.972Z,2.67
2023-01-23T03:06:50.273Z,3.30
2023-01-23T03:09:53.267Z,2.30
2023-01-23T03:12:59.695Z,2.40
2023-01-23T03:16:02.655Z,1.90
2023-01-23T03:19:08.910Z,2.23
2023-01-23T03:22:12.135Z,2.20
2023-01-23T03:25:15.108Z,3.17
2023-01-23T03:28:33.343Z,2.73
2023-01-23T03:31:36.651Z,3.47
2023-01-23T03:34:39.887Z,4.43
2023-01-23T03:37:42.998Z,3.00
2023-01-23T03:41:06.301Z,2.70
2023-01-23T03:44:10.617Z,2.40
2023-01-23T03:47:13.587Z,3.60
2023-01-23T03:50:17.176Z,3.43
2023-01-23T03:53:20.193Z,4.80
2023-01-23T03:56:23.102Z,3.77
2023-01-23T03:59:27.396Z,3.77
2023-01-23T04:02:30.355Z,2.73
2023-01-23T04:05:33.290Z,3.27
2023-01-23T04:08:36.214Z,3.00
2023-01-23T04:11:39.140Z,2.33
2023-01-23T04:14:44.340Z,2.43
2023-01-23T04:17:47.301Z,2.53
2023-01-23T04:20:50.227Z,2.40
2023-01-23T04:23:53.190Z,3.57
2023-01-23T04:26:56.447Z,2.60
2023-01-23T04:30:00.729Z,2.50
2023-01-23T04:33:03.683Z,1.97
2023-01-23T04:36:08.219Z,2.20
2023-01-23T04:39:11.185Z,2.80
2023-01-23T04:42:14.165Z,2.00
2023-01-23T04:45:18.601Z,2.90
2023-01-23T04:48:21.777Z,4.00
2023-01-23T04:51:24.769Z,3.07
2023-01-23T04:54:27.672Z,1.77
2023-01-23T04:57:31.249Z,2.70
2023-01-23T05:00:35.543Z,2.93
2023-01-23T05:03:38.465Z,2.90
2023-01-23T05:06:41.787Z,2.40
2023-01-23T05:09:44.704Z,2.30
2023-01-23T05:12:47.655Z,2.93
2023-01-23T05:15:51.947Z,4.30
2023-01-23T05:18:54.999Z,2.60
2023-01-23T05:21:57.971Z,4.10
2023-01-23T05:25:00.972Z,3.00
2023-01-23T05:28:04.017Z,4.87
2023-01-23T05:31:08.362Z,4.13
2023-01-23T05:34:11.320Z,4.10
2023-01-23T05:37:14.252Z,3.03
2023-01-23T05:40:17.309Z,3.70
2023-01-23T05:43:20.362Z,3.57
2023-01-23T05:46:24.732Z,3.87
2023-01-23T05:49:27.633Z,3.00
2023-01-23T05:52:30.549Z,3.43
2023-01-23T05:55:33.516Z,5.83
2023-01-23T05:58:36.450Z,3.93
2023-01-23T06:01:40.742Z,2.87
2023-01-23T06:04:43.670Z,4.00
2023-01-23T06:07:46.654Z,4.37
2023-01-23T06:10:49.622Z,4.30
2023-01-23T06:13:52.685Z,3.57
2023-01-23T06:16:57.000Z,4.17
2023-01-23T06:19:59.923Z,3.33
2023-01-23T06:23:02.918Z,3.70
2023-01-23T06:26:06.379Z,4.80
2023-01-23T06:29:09.305Z,3.53
2023-01-23T06:32:13.672Z,4.47
2023-01-23T06:35:16.662Z,3.93
2023-01-23T06:38:19.576Z,4.17
2023-01-23T06:41:22.569Z,5.20
2023-01-23T06:44:25.610Z,3.77
2023-01-23T06:47:29.865Z,4.60
2023-01-23T06:50:32.775Z,5.10
2023-01-23T06:53:35.759Z,4.03
2023-01-23T06:56:38.931Z,4.43
2023-01-23T06:59:42.007Z,7.17
2023-01-23T07:02:46.326Z,6.67
2023-01-23T07:05:49.224Z,4.73
2023-01-23T07:08:52.183Z,3.73
2023-01-23T07:11:55.131Z,4.97
2023-01-23T07:14:58.045Z,5.50
2023-01-23T07:18:02.779Z,5.17
2023-01-23T07:21:07.260Z,6.43
2023-01-23T07:24:10.245Z,4.40
2023-01-23T07:27:13.276Z,5.43
2023-01-23T07:30:16.833Z,5.57
2023-01-23T07:33:21.091Z,11.37
2023-01-23T07:36:24.006Z,6.57
2023-01-23T07:39:27.183Z,5.63
2023-01-23T07:42:30.219Z,5.87
2023-01-23T07:45:33.115Z,4.80
2023-01-23T07:48:38.693Z,5.93
2023-01-23T07:51:41.860Z,5.37
2023-01-23T07:54:44.796Z,5.67
2023-01-23T07:57:47.768Z,6.13
2023-01-23T08:00:50.699Z,8.03
2023-01-23T08:03:55.103Z,5.67
2023-01-23T08:06:58.065Z,6.93
2023-01-23T08:10:00.995Z,6.67
2023-01-23T08:13:03.906Z,5.50
2023-01-23T08:16:08.066Z,4.60
2023-01-23T08:19:12.309Z,7.70
2023-01-23T08:22:15.561Z,5.80
2023-01-23T08:25:18.579Z,6.00
2023-01-23T08:28:22.149Z,6.00
2023-01-23T08:31:25.223Z,5.50
2023-01-23T08:34:29.552Z,7.17
2023-01-23T08:37:33.280Z,6.90
2023-01-23T08:40:36.314Z,6.50
2023-01-23T08:43:41.411Z,4.87
2023-01-23T08:46:44.876Z,5.93
2023-01-23T08:49:49.122Z,7.07
2023-01-23T08:52:52.087Z,7.10
2023-01-23T08:55:55.071Z,6.13
2023-01-23T08:58:58.817Z,5.30
2023-01-23T09:02:02.269Z,5.33
2023-01-23T09:05:07.696Z,6.67
2023-01-23T09:08:10.716Z,6.00
2023-01-23T09:11:14.939Z,7.37
2023-01-23T09:14:17.910Z,4.33
2023-01-23T09:17:20.825Z,7.10
2023-01-23T09:20:26.627Z,8.13
2023-01-23T09:23:29.803Z,6.37
2023-01-23T09:26:32.712Z,8.77
2023-01-23T09:29:35.698Z,10.63
2023-01-23T09:32:38.734Z,9.07
2023-01-23T09:35:45.420Z,7.70
2023-01-23T09:38:49.955Z,8.27
2023-01-23T09:41:53.416Z,7.33
2023-01-23T09:45:01.463Z,8.97
2023-01-23T09:48:15.707Z,8.00
2023-01-23T09:51:25.382Z,10.53
2023-01-23T09:54:37.009Z,8.97
2023-01-23T09:57:45.236Z,10.13
2023-01-23T10:00:48.744Z,9.23
2023-01-23T10:03:52.438Z,8.77
2023-01-23T10:07:14.558Z,7.87
2023-01-23T10:10:44.241Z,10.43
2023-01-23T10:13:59.454Z,9.50
2023-01-23T10:17:11.339Z,12.47
2023-01-23T10:20:25.147Z,8.13
2023-01-23T10:23:40.936Z,9.30
2023-01-23T10:26:46.389Z,6.97
2023-01-23T10:29:52.941Z,9.10
2023-01-23T10:33:00.164Z,8.10
2023-01-23T10:36:06.933Z,8.27
2023-01-23T10:39:15.979Z,8.07
2023-01-23T10:42:23.731Z,9.13
2023-01-23T10:45:26.791Z,9.77
2023-01-23T10:48:40.170Z,12.43
2023-01-23T10:51:48.143Z,9.77
2023-01-23T10:54:52.391Z,8.17
2023-01-23T10:57:57.074Z,9.63
2023-01-23T11:01:01.171Z,10.10
2023-01-23T11:04:12.055Z,11.03
2023-01-23T11:07:17.631Z,11.97
2023-01-23T11:10:24.044Z,10.47
2023-01-23T11:13:29.124Z,9.97
2023-01-23T11:16:32.150Z,9.53
2023-01-23T11:19:37.841Z,8.07
2023-01-23T11:22:42.156Z,12.23
2023-01-23T11:25:47.378Z,8.30
2023-01-23T11:28:51.406Z,11.93
2023-01-23T11:32:00.322Z,8.13
2023-01-23T11:35:13.970Z,10.73
2023-01-23T11:38:30.291Z,9.57
2023-01-23T11:41:36.823Z,9.73
2023-01-23T11:44:46.503Z,8.63
2023-01-23T11:48:01.401Z,12.37
2023-01-23T11:51:12.736Z,7.73
2023-01-23T11:54:38.950Z,9.63
2023-01-23T11:57:54.111Z,10.57
2023-01-23T12:01:07.117Z,9.17
2023-01-23T12:04:26.144Z,11.03
2023-01-23T12:07:29.452Z,9.83
2023-01-23T12:10:46.371Z,8.40
2023-01-23T12:14:11.017Z,8.43
2023-01-23T12:17:25.892Z,8.90
2023-01-23T12:20:37.569Z,7.57
2023-01-23T12:24:00.592Z,8.40
2023-01-23T12:27:15.173Z,10.30
2023-01-23T12:30:51.662Z,8.20
2023-01-23T12:34:26.003Z,8.63
2023-01-23T12:37:49.365Z,11.07
2023-01-23T12:40:57.315Z,10.07
2023-01-23T12:44:06.041Z,6.67
2023-01-23T12:47:16.769Z,7.80
2023-01-23T12:50:22.861Z,9.50
2023-01-23T12:53:26.266Z,10.27
2023-01-23T12:56:32.431Z,7.20
2023-01-23T12:59:48.412Z,8.30
2023-01-23T13:03:01.464Z,8.83
2023-01-23T13:06:18.829Z,10.47
2023-01-23T13:09:30.407Z,7.13
2023-01-23T13:12:33.884Z,9.37
2023-01-23T13:15:41.214Z,9.87
2023-01-23T13:19:13.507Z,10.60
2023-01-23T13:22:29.021Z,8.70
2023-01-23T13:25:33.651Z,8.83
2023-01-23T13:28:45.692Z,10.00
2023-01-23T13:31:52.550Z,9.17
2023-01-23T13:34:57.224Z,10.00
2023-01-23T13:38:00.415Z,9.80
2023-01-23T13:41:30.667Z,11.43
2023-01-23T13:44:42.180Z,10.73
2023-01-23T14:22:18.901Z,9.20
2023-01-23T14:25:23.625Z,8.93
2023-01-23T14:28:27.442Z,8.57
2023-01-23T14:31:32.151Z,10.10
2023-01-23T14:34:40.556Z,8.80
2023-01-23T14:37:43.600Z,7.73
2023-01-23T14:40:51.035Z,8.80
2023-01-23T14:43:55.909Z,10.13
2023-01-23T14:47:00.793Z,6.60
2023-01-23T14:50:09.203Z,10.33
2023-01-23T14:53:17.016Z,7.60
2023-01-23T14:56:23.571Z,9.53
2023-01-23T14:59:30.859Z,7.30
2023-01-23T15:02:36.625Z,8.63
2023-01-23T15:05:41.606Z,10.40
2023-01-23T15:08:44.990Z,10.43
2023-01-23T15:11:49.379Z,9.23
2023-01-23T15:14:56.078Z,10.37
2023-01-23T15:18:01.594Z,9.67
2023-01-23T15:21:06.890Z,9.00
2023-01-23T15:24:28.488Z,10.03
2023-01-23T15:27:35.100Z,11.00
2023-01-23T15:30:43.180Z,12.37
2023-01-23T15:33:47.632Z,9.03
2023-01-23T15:36:53.372Z,11.20
2023-01-23T15:40:01.912Z,9.93
2023-01-23T15:43:10.775Z,9.60
2023-01-23T15:46:14.125Z,9.53
2023-01-23T15:49:25.491Z,10.33
2023-01-23T15:52:30.561Z,12.20
2023-01-23T15:55:33.542Z,8.80
2023-01-23T15:58:37.819Z,9.47
2023-01-23T16:01:40.762Z,10.80
2023-01-23T16:04:43.844Z,10.83
2023-01-23T16:07:48.142Z,11.63
2023-01-23T16:10:51.648Z,11.07
2023-01-23T16:13:55.955Z,11.13
2023-01-23T16:17:08.134Z,11.20
2023-01-23T16:20:21.864Z,13.23
2023-01-23T16:23:26.640Z,11.33
2023-01-23T16:26:30.983Z,11.70
2023-01-23T16:29:35.765Z,11.77
2023-01-23T16:32:39.113Z,11.80
2023-01-23T16:35:42.641Z,19.23
2023-01-23T16:38:51.319Z,12.80
2023-01-23T16:41:55.484Z,12.03
2023-01-23T16:44:59.737Z,10.70
2023-01-23T16:48:02.670Z,9.87
2023-01-23T16:51:12.721Z,11.87
2023-01-23T16:54:19.369Z,10.70
2023-01-23T16:57:22.597Z,12.73
2023-01-23T17:00:34.700Z,12.97
2023-01-23T17:03:40.628Z,10.10
2023-01-23T17:06:43.661Z,10.07
2023-01-23T17:09:47.359Z,14.50
2023-01-23T17:12:53.256Z,11.53
2023-01-23T17:15:57.814Z,12.97
2023-01-23T17:19:05.887Z,10.57
2023-01-23T17:22:19.114Z,12.90
2023-01-23T17:25:24.218Z,15.17
2023-01-23T17:28:27.212Z,12.90
2023-01-23T17:31:32.541Z,11.83
2023-01-23T17:34:48.890Z,13.80
2023-01-23T17:37:53.160Z,11.90
2023-01-23T17:40:56.192Z,14.73
2023-01-23T17:43:59.106Z,14.50
2023-01-23T17:47:03.528Z,14.27
2023-01-23T17:50:07.562Z,14.10
2023-01-23T17:53:13.261Z,14.13
2023-01-23T17:56:16.998Z,12.50
2023-01-23T17:59:19.976Z,13.17
2023-01-23T18:02:28.542Z,12.83
2023-01-23T18:05:31.583Z,14.10
2023-01-23T18:08:34.516Z,13.93
2023-01-23T18:11:39.364Z,13.03
2023-01-23T18:14:48.833Z,13.17
2023-01-23T18:18:04.476Z,10.47
2023-01-23T18:21:14.371Z,14.97
2023-01-23T18:24:26.910Z,14.53
2023-01-23T18:27:33.329Z,10.87
2023-01-23T18:30:46.696Z,12.73
2023-01-23T18:34:03.410Z,12.83
2023-01-23T18:37:17.891Z,13.07
2023-01-23T18:40:27.915Z,16.27
2023-01-23T18:43:35.823Z,13.93
2023-01-23T18:46:39.116Z,14.93
2023-01-23T18:49:43.988Z,16.80
2023-01-23T18:52:54.439Z,13.77
2023-01-23T18:56:08.075Z,17.20
2023-01-23T18:59:19.835Z,17.50
2023-01-23T19:02:31.884Z,13.80
2023-01-23T19:05:36.660Z,14.00
2023-01-23T19:08:40.733Z,13.97
2023-01-23T19:11:57.658Z,14.23
2023-01-23T19:15:13.706Z,13.83
2023-01-23T19:18:40.157Z,19.60
2023-01-23T19:21:47.873Z,16.63
2023-01-23T19:24:51.274Z,14.90
2023-01-23T19:27:56.615Z,14.03
2023-01-23T19:31:00.153Z,17.27
2023-01-23T19:34:04.578Z,13.70
2023-01-23T19:37:08.954Z,15.63
2023-01-23T19:40:13.150Z,16.43
2023-01-23T19:43:17.046Z,14.00
2023-01-23T19:46:21.341Z,19.30
2023-01-23T19:49:25.032Z,14.23
2023-01-23T19:52:29.331Z,14.57
2023-01-23T19:55:34.258Z,17.43
2023-01-23T19:58:37.203Z,16.57
2023-01-23T20:01:43.508Z,17.87
2023-01-23T20:04:46.868Z,14.83
2023-01-23T20:07:51.640Z,15.33
2023-01-23T20:10:54.564Z,16.27
2023-01-23T20:13:57.480Z,17.27
2023-01-23T20:17:00.550Z,16.00
2023-01-23T20:20:03.807Z,14.67
2023-01-23T20:23:08.116Z,18.43
2023-01-23T20:26:11.154Z,17.47
2023-01-23T20:29:14.128Z,20.47
2023-01-23T20:32:17.063Z,19.27
2023-01-23T20:35:20.034Z,17.87
2023-01-23T20:38:24.408Z,20.10
2023-01-23T20:41:27.358Z,15.43
2023-01-23T20:44:30.262Z,16.90
2023-01-23T20:47:33.219Z,15.03
2023-01-23T20:50:38.222Z,12.40
2023-01-23T20:53:43.122Z,18.20
2023-01-23T20:56:47.502Z,15.70
2023-01-23T20:59:49.681Z,19.40
2023-01-23T21:02:53.190Z,16.07
2023-01-23T21:05:57.139Z,19.83
2023-01-23T21:09:01.485Z,16.37
2023-01-23T21:12:04.645Z,16.30
2023-01-23T21:15:08.771Z,15.00
2023-01-23T21:18:11.807Z,17.20
2023-01-23T21:21:16.602Z,16.77
2023-01-23T21:24:20.946Z,16.90
2023-01-23T21:27:25.230Z,18.47
2023-01-23T21:30:29.076Z,17.23
2023-01-23T21:33:32.067Z,16.43
2023-01-23T21:36:35.462Z,19.20
2023-01-23T21:39:40.300Z,18.90
2023-01-23T21:42:43.246Z,15.50
2023-01-23T21:45:46.152Z,18.00
2023-01-23T21:48:49.207Z,15.53
2023-01-23T21:51:52.195Z,17.57
2023-01-23T21:54:56.933Z,16.77
2023-01-23T21:58:00.294Z,16.07
2023-01-23T22:01:22.636Z,17.77
2023-01-23T22:04:25.733Z,17.37
2023-01-23T22:07:28.822Z,16.83
2023-01-23T22:10:33.157Z,16.63
2023-01-23T22:13:36.599Z,19.43
2023-01-23T22:16:48.532Z,15.27
2023-01-23T22:19:52.294Z,18.33
2023-01-23T22:22:55.202Z,16.47
2023-01-23T22:26:01.597Z,16.70
2023-01-23T22:29:04.544Z,15.00
2023-01-23T22:32:07.586Z,14.67
2023-01-23T22:35:11.006Z,16.97
2023-01-23T22:38:15.496Z,15.13
2023-01-23T22:41:20.558Z,18.27
2023-01-23T22:44:23.479Z,17.97
2023-01-23T22:47:26.424Z,16.97
2023-01-23T22:50:29.616Z,15.30
2023-01-23T22:53:32.851Z,15.47
2023-01-23T22:56:37.249Z,21.67
2023-01-23T22:59:40.208Z,20.03
2023-01-23T23:02:43.445Z,15.70
2023-01-23T23:05:46.400Z,17.93
2023-01-23T23:08:49.627Z,17.17
2023-01-23T23:11:54.002Z,15.07
2023-01-23T23:14:56.939Z,15.27
2023-01-23T23:17:59.828Z,14.97
2023-01-23T23:21:03.755Z,19.13
2023-01-23T23:24:09.020Z,17.00
2023-01-23T23:27:13.412Z,13.80
2023-01-23T23:30:16.980Z,16.40
2023-01-23T23:33:20.637Z,20.57
2023-01-23T23:36:24.126Z,19.30
2023-01-23T23:39:27.147Z,16.87
2023-01-23T23:42:31.408Z,16.60
2023-01-23T23:45:34.854Z,19.13
2023-01-23T23:48:39.063Z,15.70
2023-01-23T23:51:41.979Z,17.10
2023-01-23T23:54:44.916Z,17.47
2023-01-23T23:57:49.159Z,15.60
